Fenwick, West Virginia
Current Conditions -  °F | °C
As of 3:35 PM on Friday 21 Nov 2014 (Local Time) from KLWB Reporting Station
Clear Clear  
Wind Chill: -1°   Ceiling: Unl
Heat Index:   Visibility: 10mi
Dew Point: -16°   Wind: 6mph
Humidity: 26%   Direction: 290°WNW
Pressure: 30.4"   Gusts: NA
Location:  38.23°N, 80.58°W
Report Text: KLWB 212035Z AUTO 29005KT 10SM CLR 02/M16 A3040 RMK AO2 T00181159
Loading
Personal Weather Stations






























Interactive Weather Map New forecast layout! Learn more

10-Day Weather Forecast

Advertisements
Track Severe Weather on mobile